Monaghan, Ireland
Current Conditions -  °F | °C
As of 3:20 PM on Tuesday 21 Oct 2014 (Local Time) from EGAA Reporting Station
Scattered Clouds Scattered Clouds  
Wind Chill: 36°   Ceiling: Unl
Heat Index: 45°   Visibility: 6mi
Dew Point: 39°   Wind: 23mph
Humidity: 81%   Direction: 300°WNW
Pressure: 29.91"   Gusts: 37mph
Location:  54.25°N, 6.97°W
Report Text: EGAA 211520Z 30020G32KT 9999 SCT021 07/04 Q1013
Loading
Personal Weather Stations






























Interactive Weather Map
Tropical Storm Tracking
New forecast layout! Learn more

10-Day Weather Forecast

Advertisements
Track Severe Weather on mobile